This is the latest recevied weather packets stored in our database for station/object KF7SOJ. If no packets are shown the sender has not sent any weather packets the latest 10 day(s).
| Time | Temp. | Humidity | Pressure | Rain* | Wind** | Luminosity | Snow |
|---|---|---|---|---|---|---|---|
| 1777617052 | 7.78° C | 41% | 935.6 hPa | 0 mm | - | 0 W/m² | - |
| 1777616751 | 7.78° C | 42% | 935.5 hPa | 0 mm | - | 0 W/m² | - |
| 1777616446 | 8.33° C | 41% | 935.5 hPa | 0 mm | - | 0 W/m² | - |
| 1777616143 | 8.33° C | 40% | 935.6 hPa | 0 mm | - | 0 W/m² | - |
| 1777615840 | 7.78° C | 42% | 935.5 hPa | 0 mm | - | 0 W/m² | - |
| 1777615538 | 7.22° C | 43% | 935.5 hPa | 0 mm | - | 0 W/m² | - |
| 1777615233 | 7.78° C | 44% | 935.6 hPa | 0 mm | - | 0 W/m² | - |
| 1777614933 | 7.78° C | 42% | 935.6 hPa | 0 mm | - | 0 W/m² | - |
| 1777614630 | 7.78° C | 43% | 935.7 hPa | 0 mm | - | 0 W/m² | - |
| 1777614325 | 7.78° C | 43% | 935.6 hPa | 0 mm | - | 0 W/m² | - |
| 1777614020 | 7.78° C | 42% | 935.7 hPa | 0 mm | - | 0 W/m² | - |
| 1777613716 | 8.33° C | 41% | 935.6 hPa | 0 mm | - | 0 W/m² | - |
| 1777613414 | 7.78° C | 41% | 935.8 hPa | 0 mm | - | 0 W/m² | - |
| 1777613110 | 8.33° C | 41% | 935.8 hPa | 0 mm | - | 0 W/m² | - |
| 1777612806 | 8.33° C | 40% | 935.7 hPa | 0 mm | - | 0 W/m² | - |
| 1777612503 | 8.33° C | 40% | 935.8 hPa | 0 mm | - | 0 W/m² | - |
| 1777612198 | 7.78° C | 42% | 935.9 hPa | 0 mm | - | 0 W/m² | - |
| 1777611893 | 8.33° C | 41% | 935.9 hPa | 0 mm | - | 0 W/m² | - |
| 1777611589 | 8.33° C | 41% | 935.8 hPa | 0 mm | - | 0 W/m² | - |
| 1777611286 | 8.33° C | 41% | 935.9 hPa | 0 mm | - | 0 W/m² | - |
| 1777610984 | 8.89° C | 40% | 936 hPa | 0 mm | - | 0 W/m² | - |
| 1777610679 | 8.89° C | 39% | 936 hPa | 0 mm | - | 0 W/m² | - |
| 1777610378 | 7.78° C | 42% | 936 hPa | 0 mm | - | 0 W/m² | - |
| 1777610074 | 8.33° C | 41% | 935.9 hPa | 0 mm | - | 0 W/m² | - |
| 1777609772 | 8.33° C | 41% | 935.9 hPa | 0 mm | - | 0 W/m² | - |
* Rain latest hour (hover to see other rain measurements)
** Current wind speed in m/s (hover to see current wind gust speed)